TimeCST,TemperatureF,Dew PointF,Humidity,Sea Level PressureIn,VisibilityMPH,Wind Direction,Wind SpeedMPH,Gust SpeedMPH,PrecipitationIn,Events,Conditions,WindDirDegrees,DateUTC
12:52 AM,30.9,26.1,82,30.10,6.0,SW,10.4,-,N/A,,Haze,220,2013-01-08 06:52:00
1:52 AM,30.0,26.1,85,30.10,6.0,SSW,10.4,-,N/A,,Mostly Cloudy,210,2013-01-08 07:52:00
2:52 AM,30.0,26.1,85,30.10,6.0,SW,5.8,-,N/A,,Scattered Clouds,230,2013-01-08 08:52:00
3:52 AM,28.9,25.0,85,30.09,6.0,SW,6.9,-,N/A,,Scattered Clouds,220,2013-01-08 09:52:00
4:52 AM,28.0,25.0,88,30.11,6.0,SW,4.6,-,N/A,,Partly Cloudy,230,2013-01-08 10:52:00
5:52 AM,28.0,24.1,85,30.11,6.0,WSW,4.6,-,N/A,,Partly Cloudy,240,2013-01-08 11:52:00
6:52 AM,27.0,24.1,89,30.12,6.0,SW,5.8,-,N/A,,Partly Cloudy,220,2013-01-08 12:52:00
7:52 AM,28.0,24.1,85,30.14,5.0,SW,9.2,-,N/A,,Scattered Clouds,220,2013-01-08 13:52:00
8:52 AM,28.9,24.1,82,30.15,5.0,SW,8.1,-,N/A,,Haze,230,2013-01-08 14:52:00
9:52 AM,30.9,25.0,79,30.14,6.0,SW,10.4,-,N/A,,Haze,220,2013-01-08 15:52:00
10:52 AM,35.1,26.1,70,30.13,7.0,SW,8.1,-,N/A,,Mostly Cloudy,230,2013-01-08 16:52:00
11:52 AM,37.0,28.0,70,30.11,7.0,South,8.1,-,N/A,,Mostly Cloudy,170,2013-01-08 17:52:00
12:52 PM,37.9,28.9,70,30.09,9.0,South,5.8,-,N/A,,Mostly Cloudy,180,2013-01-08 18:52:00
1:52 PM,39.9,28.9,65,30.09,10.0,South,9.2,-,N/A,,Mostly Cloudy,190,2013-01-08 19:52:00
2:52 PM,39.0,28.9,67,30.08,8.0,SSE,6.9,-,N/A,,Mostly Cloudy,160,2013-01-08 20:52:00
3:52 PM,39.0,28.9,67,30.08,8.0,South,9.2,-,N/A,,Mostly Cloudy,170,2013-01-08 21:52:00
4:52 PM,37.0,30.0,76,30.06,8.0,SSE,9.2,-,N/A,,Mostly Cloudy,160,2013-01-08 22:52:00
5:52 PM,37.0,30.0,76,30.05,8.0,South,10.4,-,N/A,,Mostly Cloudy,170,2013-01-08 23:52:00
6:52 PM,37.4,30.2,75,30.02,8.0,South,12.7,-,N/A,,Scattered Clouds,170,2013-01-09 00:52:00
7:52 PM,37.0,28.9,73,30.02,9.0,South,15.0,21.9,N/A,,Mostly Cloudy,170,2013-01-09 01:52:00
8:52 PM,37.0,28.9,73,30.02,10.0,SSW,6.9,-,N/A,,Mostly Cloudy,210,2013-01-09 02:52:00
9:52 PM,37.9,28.9,70,30.02,10.0,SSW,13.8,-,N/A,,Mostly Cloudy,210,2013-01-09 03:52:00
10:52 PM,37.9,28.0,68,29.99,10.0,SSW,11.5,-,N/A,,Mostly Cloudy,210,2013-01-09 04:52:00
11:52 PM,37.9,28.0,68,29.97,10.0,SW,11.5,-,N/A,,Mostly Cloudy,220,2013-01-09 05:52:00